Time;durP1;ratioP1;P1;durP2;ratioP2;P2;SDS_P1;SDS_P2;PMS_P1;PMS_P2;Temp;Humidity;BMP_temperature;BMP_pressure;BME280_temperature;BME280_humidity;BME280_pressure;Samples;Min_cycle;Max_cycle;Signal;HPM_P1;HPM_P2
2022/09/16 00:00:58;;;;;;;;;;;11.80;99.90;;;;;;5104389;27;20316;-55
2022/09/16 00:03:38;;;;;;;;;;;11.80;99.90;;;;;;5104730;27;19912;-53
2022/09/16 00:06:19;;;;;;;;;;;11.80;99.90;;;;;;5104638;27;19926;-54
2022/09/16 00:09:00;;;;;;;;;;;11.80;99.90;;;;;;5104044;27;20319;-54
2022/09/16 00:11:40;;;;;;;;;;;11.90;99.90;;;;;;5105267;27;19912;-55
2022/09/16 00:14:20;;;;;;;;;;;11.80;99.90;;;;;;5105609;27;19961;-54
2022/09/16 00:17:00;;;;;;;;;;;11.90;99.90;;;;;;5125355;27;19916;-54
2022/09/16 00:19:40;;;;;;;;;;;11.90;99.90;;;;;;5084051;28;20354;-54
2022/09/16 00:22:20;;;;;;;;;;;11.90;99.90;;;;;;5105240;27;19926;-54
2022/09/16 00:25:00;;;;;;;;;;;11.90;99.90;;;;;;5105004;27;19953;-54
2022/09/16 00:27:39;;;;;;;;;;;11.90;99.90;;;;;;5104089;27;19953;-56
2022/09/16 00:30:19;;;;;;;;;;;11.90;99.90;;;;;;5104543;27;19962;-54
2022/09/16 00:32:59;;;;;;;;;;;11.90;99.90;;;;;;5104747;27;20323;-56
2022/09/16 00:35:39;;;;;;;;;;;11.90;99.90;;;;;;5104894;27;19926;-56
2022/09/16 00:38:19;;;;;;;;;;;12.00;99.90;;;;;;5105010;27;19926;-53
2022/09/16 00:40:59;;;;;;;;;;;12.00;99.90;;;;;;5104431;27;19926;-53
2022/09/16 00:43:49;;;;;;;;;;;12.00;99.90;;;;;;5104934;27;19912;-54
2022/09/16 00:46:35;;;;;;;;;;;12.00;99.90;;;;;;5104878;27;19953;-54
2022/09/16 00:49:18;;;;;;;;;;;12.00;99.90;;;;;;5124813;27;19912;-55
2022/09/16 00:52:00;;;;;;;;;;;12.00;99.90;;;;;;5113094;27;19920;-54
2022/09/16 00:54:41;;;;;;;;;;;12.00;99.90;;;;;;5104342;27;19953;-56
2022/09/16 00:57:22;;;;;;;;;;;12.00;99.90;;;;;;5098057;27;19931;-54
2022/09/16 01:00:02;;;;;;;;;;;12.00;99.90;;;;;;5097163;27;19930;-54
2022/09/16 01:02:42;;;;;;;;;;;11.90;99.90;;;;;;5085624;27;19954;-54
2022/09/16 01:05:25;;;;;;;;;;;11.80;99.90;;;;;;5124582;27;19912;-54
2022/09/16 01:08:06;;;;;;;;;;;11.80;99.90;;;;;;5104829;27;19930;-55
2022/09/16 01:10:45;;;;;;;;;;;11.70;99.90;;;;;;5101636;27;19920;-54
2022/09/16 01:13:25;;;;;;;;;;;11.70;99.90;;;;;;5104788;27;19926;-55
2022/09/16 01:16:08;;;;;;;;;;;11.70;99.90;;;;;;5104785;27;19949;-57
2022/09/16 01:18:52;;;;;;;;;;;11.70;99.90;;;;;;5103931;27;19953;-57
2022/09/16 01:21:40;;;;;;;;;;;11.60;99.90;;;;;;5125339;27;19916;-55
2022/09/16 01:24:32;;;;;;;;;;;11.60;99.90;;;;;;5104831;27;20423;-57
2022/09/16 01:27:28;;;;;;;;;;;11.60;99.90;;;;;;5103722;27;19961;-56
2022/09/16 01:30:18;;;;;;;;;;;11.60;99.90;;;;;;5104539;27;20423;-55
2022/09/16 01:33:03;;;;;;;;;;;11.60;99.90;;;;;;5104665;27;19926;-55
2022/09/16 01:35:49;;;;;;;;;;;11.50;99.90;;;;;;5100097;27;19969;-55
2022/09/16 01:38:37;;;;;;;;;;;11.40;99.90;;;;;;5103317;27;19919;-54
2022/09/16 01:41:20;;;;;;;;;;;11.40;99.90;;;;;;5104633;27;19949;-55
2022/09/16 01:44:02;;;;;;;;;;;11.30;99.90;;;;;;5105018;27;19954;-55
2022/09/16 01:46:45;;;;;;;;;;;11.30;99.90;;;;;;5142122;27;19912;-55
2022/09/16 01:49:31;;;;;;;;;;;11.20;99.90;;;;;;5103793;27;19926;-55
2022/09/16 01:52:14;;;;;;;;;;;11.10;99.90;;;;;;5104911;27;19957;-56
2022/09/16 01:54:59;;;;;;;;;;;11.10;99.90;;;;;;5105132;27;19946;-55
2022/09/16 01:57:41;;;;;;;;;;;11.00;99.90;;;;;;5104388;27;20418;-54
2022/09/16 02:00:22;;;;;;;;;;;11.00;99.90;;;;;;5083664;28;20413;-55
2022/09/16 02:03:03;;;;;;;;;;;11.00;99.90;;;;;;5105114;27;19965;-54
2022/09/16 02:05:47;;;;;;;;;;;11.00;99.90;;;;;;5104376;27;19980;-54
2022/09/16 02:08:31;;;;;;;;;;;11.00;99.90;;;;;;5126100;27;19918;-54
2022/09/16 02:11:13;;;;;;;;;;;11.00;99.90;;;;;;5104680;27;20415;-55
2022/09/16 02:13:59;;;;;;;;;;;11.00;99.90;;;;;;5105346;27;19930;-54
2022/09/16 02:16:41;;;;;;;;;;;11.00;99.90;;;;;;5104710;27;19927;-54
2022/09/16 02:19:23;;;;;;;;;;;11.00;99.90;;;;;;5104411;27;19912;-55
2022/09/16 02:22:04;;;;;;;;;;;11.00;99.90;;;;;;5111900;27;19916;-59
2022/09/16 02:24:46;;;;;;;;;;;11.00;99.90;;;;;;5125496;27;19918;-54
2022/09/16 02:27:28;;;;;;;;;;;11.10;99.90;;;;;;5103391;27;19916;-54
2022/09/16 02:30:11;;;;;;;;;;;11.10;99.90;;;;;;5104690;27;19974;-54
2022/09/16 02:32:54;;;;;;;;;;;11.10;99.90;;;;;;5101093;27;19961;-54
2022/09/16 02:35:36;;;;;;;;;;;11.10;99.90;;;;;;5081643;27;19963;-54
2022/09/16 02:38:18;;;;;;;;;;;11.20;99.90;;;;;;5103768;27;20017;-54
2022/09/16 02:41:00;;;;;;;;;;;11.20;99.90;;;;;;5102851;27;19926;-55
2022/09/16 02:43:41;;;;;;;;;;;11.20;99.90;;;;;;5104315;27;19954;-56
2022/09/16 02:46:24;;;;;;;;;;;11.20;99.90;;;;;;5104930;27;20426;-54
2022/09/16 02:49:07;;;;;;;;;;;11.20;99.90;;;;;;5104049;27;20024;-54
2022/09/16 02:51:55;;;;;;;;;;;11.20;99.90;;;;;;5114247;27;19918;-53
2022/09/16 02:54:39;;;;;;;;;;;11.20;99.90;;;;;;5104829;27;19927;-55
2022/09/16 02:57:19;;;;;;;;;;;11.20;99.90;;;;;;5125664;27;20361;-55
2022/09/16 02:59:59;;;;;;;;;;;11.20;99.90;;;;;;5101567;27;19930;-54
2022/09/16 03:02:39;;;;;;;;;;;11.10;99.90;;;;;;5066929;27;19927;-54
2022/09/16 03:05:18;;;;;;;;;;;11.10;99.90;;;;;;5104496;27;19916;-55
2022/09/16 03:08:00;;;;;;;;;;;11.10;99.90;;;;;;5105187;27;20327;-55
2022/09/16 03:10:43;;;;;;;;;;;11.10;99.90;;;;;;5103810;27;19926;-55
2022/09/16 03:13:27;;;;;;;;;;;11.10;99.90;;;;;;5105390;27;19926;-54
2022/09/16 03:16:12;;;;;;;;;;;11.10;99.90;;;;;;5104829;27;19954;-54
2022/09/16 03:18:57;;;;;;;;;;;11.10;99.90;;;;;;5136674;27;20377;-54
2022/09/16 03:21:40;;;;;;;;;;;11.00;99.90;;;;;;5104383;27;19916;-56
2022/09/16 03:24:27;;;;;;;;;;;11.00;99.90;;;;;;5084674;28;19912;-53
2022/09/16 03:27:11;;;;;;;;;;;11.10;99.90;;;;;;5104107;27;19916;-55
2022/09/16 03:29:54;;;;;;;;;;;11.10;99.90;;;;;;5104515;27;19912;-54
2022/09/16 03:32:37;;;;;;;;;;;11.10;99.90;;;;;;5087196;27;19916;-54
2022/09/16 03:35:19;;;;;;;;;;;11.10;99.90;;;;;;5104636;27;19958;-55
2022/09/16 03:38:00;;;;;;;;;;;11.00;99.90;;;;;;5102499;27;20365;-54
2022/09/16 03:40:42;;;;;;;;;;;11.00;99.90;;;;;;5103998;27;19961;-54
2022/09/16 03:43:22;;;;;;;;;;;11.10;99.90;;;;;;5084129;28;19912;-56
2022/09/16 03:46:02;;;;;;;;;;;11.10;99.90;;;;;;5101970;27;19965;-53
2022/09/16 03:48:42;;;;;;;;;;;11.10;99.90;;;;;;5124893;27;19912;-54
2022/09/16 03:51:22;;;;;;;;;;;11.10;99.90;;;;;;5104950;27;19912;-55
2022/09/16 03:54:03;;;;;;;;;;;11.00;99.90;;;;;;5104978;27;19930;-57
2022/09/16 03:56:43;;;;;;;;;;;11.00;99.90;;;;;;5105034;27;20059;-55
2022/09/16 03:59:23;;;;;;;;;;;11.00;99.90;;;;;;5103787;27;19949;-54
2022/09/16 04:02:03;;;;;;;;;;;11.00;99.90;;;;;;5104829;27;20375;-54
2022/09/16 04:04:43;;;;;;;;;;;11.00;99.90;;;;;;5104986;27;19926;-55
2022/09/16 04:07:22;;;;;;;;;;;11.00;99.90;;;;;;5166775;27;19925;-53
2022/09/16 04:10:02;;;;;;;;;;;11.00;99.90;;;;;;5104259;27;19953;-55
2022/09/16 04:12:42;;;;;;;;;;;10.90;99.90;;;;;;5125366;27;19918;-55
2022/09/16 04:15:22;;;;;;;;;;;10.90;99.90;;;;;;5104933;27;19969;-55
2022/09/16 04:18:02;;;;;;;;;;;10.90;99.90;;;;;;5167293;27;20212;-54
2022/09/16 04:20:42;;;;;;;;;;;10.90;99.90;;;;;;5101943;27;19912;-56
2022/09/16 04:23:23;;;;;;;;;;;10.90;99.90;;;;;;5123476;27;19915;-57
2022/09/16 04:26:03;;;;;;;;;;;10.90;99.90;;;;;;5104046;27;20423;-55
2022/09/16 04:28:43;;;;;;;;;;;10.80;99.90;;;;;;5102698;27;19950;-57
2022/09/16 04:31:22;;;;;;;;;;;10.70;99.90;;;;;;5097634;27;19926;-55
2022/09/16 04:34:02;;;;;;;;;;;10.60;99.90;;;;;;5104914;27;19953;-55
2022/09/16 04:36:42;;;;;;;;;;;10.50;99.90;;;;;;5104370;27;19945;-54
2022/09/16 04:39:22;;;;;;;;;;;10.40;99.90;;;;;;5103803;27;19930;-54
2022/09/16 04:42:03;;;;;;;;;;;10.40;99.90;;;;;;5092125;27;19917;-55
2022/09/16 04:44:43;;;;;;;;;;;10.40;99.90;;;;;;5125205;27;19945;-55
2022/09/16 04:47:23;;;;;;;;;;;10.30;99.90;;;;;;5104675;27;20237;-55
2022/09/16 04:50:03;;;;;;;;;;;10.20;99.90;;;;;;5124614;27;20300;-55
2022/09/16 04:52:42;;;;;;;;;;;10.10;99.90;;;;;;5096413;27;19916;-56
2022/09/16 04:55:22;;;;;;;;;;;10.10;99.90;;;;;;5105024;27;19930;-56
2022/09/16 04:58:02;;;;;;;;;;;10.20;99.90;;;;;;5104424;27;19981;-56
2022/09/16 05:00:42;;;;;;;;;;;10.30;99.90;;;;;;5103919;27;19950;-56
2022/09/16 05:03:22;;;;;;;;;;;10.30;99.90;;;;;;5104212;27;20335;-55
2022/09/16 05:06:06;;;;;;;;;;;10.40;99.90;;;;;;5103719;27;19934;-55
2022/09/16 05:08:47;;;;;;;;;;;10.40;99.90;;;;;;5124424;27;19918;-57
2022/09/16 05:11:27;;;;;;;;;;;10.50;99.90;;;;;;5104822;27;19950;-55
2022/09/16 05:14:08;;;;;;;;;;;10.50;99.90;;;;;;5105039;27;19926;-56
2022/09/16 05:16:49;;;;;;;;;;;10.60;99.90;;;;;;5104709;27;19958;-54
2022/09/16 05:19:29;;;;;;;;;;;10.60;99.90;;;;;;5104034;27;20425;-54
2022/09/16 05:22:11;;;;;;;;;;;10.60;99.90;;;;;;5090819;27;19958;-55
2022/09/16 05:24:50;;;;;;;;;;;10.70;99.90;;;;;;5104671;27;19945;-54
2022/09/16 05:27:31;;;;;;;;;;;10.70;99.90;;;;;;5104165;27;20343;-56
2022/09/16 05:30:13;;;;;;;;;;;10.70;99.90;;;;;;5104287;27;19926;-54
2022/09/16 05:32:54;;;;;;;;;;;10.70;99.90;;;;;;5104350;27;19930;-56
2022/09/16 05:35:34;;;;;;;;;;;10.80;99.90;;;;;;5104598;27;19947;-55
2022/09/16 05:38:15;;;;;;;;;;;10.90;99.90;;;;;;5104724;27;20127;-56
2022/09/16 05:40:59;;;;;;;;;;;11.00;99.90;;;;;;5083477;28;19927;-54
2022/09/16 05:43:38;;;;;;;;;;;11.20;99.90;;;;;;5104790;27;19926;-54
2022/09/16 05:46:20;;;;;;;;;;;11.30;99.90;;;;;;5125038;27;19918;-53
2022/09/16 05:49:00;;;;;;;;;;;11.40;99.90;;;;;;5104107;27;20431;-54
2022/09/16 05:51:40;;;;;;;;;;;11.50;99.90;;;;;;5093915;27;19913;-54
2022/09/16 05:54:23;;;;;;;;;;;11.60;99.90;;;;;;5104525;27;19953;-57
2022/09/16 05:57:04;;;;;;;;;;;11.70;99.90;;;;;;5104449;27;19912;-54
2022/09/16 05:59:44;;;;;;;;;;;11.80;99.90;;;;;;5105270;27;19965;-54
2022/09/16 06:02:24;;;;;;;;;;;11.90;99.90;;;;;;5105228;27;20427;-53
2022/09/16 06:05:04;;;;;;;;;;;12.00;99.90;;;;;;5125447;27;19912;-54
2022/09/16 06:07:43;;;;;;;;;;;12.10;99.90;;;;;;5104900;27;20249;-54
2022/09/16 06:10:23;;;;;;;;;;;12.20;99.90;;;;;;5104462;27;19916;-54
2022/09/16 06:13:03;;;;;;;;;;;12.30;99.90;;;;;;5105580;27;19916;-54
2022/09/16 06:15:49;;;;;;;;;;;12.40;99.90;;;;;;5104943;27;20447;-53
2022/09/16 06:18:30;;;;;;;;;;;12.40;99.90;;;;;;5125214;27;19919;-55
2022/09/16 06:21:11;;;;;;;;;;;12.40;99.90;;;;;;5105444;27;19926;-53
2022/09/16 06:23:52;;;;;;;;;;;12.50;99.90;;;;;;5125775;27;19916;-54
2022/09/16 06:26:32;;;;;;;;;;;12.50;99.90;;;;;;5105004;27;20316;-54
2022/09/16 06:29:12;;;;;;;;;;;12.60;99.90;;;;;;5152166;27;19911;-54
2022/09/16 06:31:51;;;;;;;;;;;12.80;99.90;;;;;;5105248;27;19926;-56
2022/09/16 06:34:31;;;;;;;;;;;13.10;99.90;;;;;;5125665;27;19912;-53
2022/09/16 06:37:12;;;;;;;;;;;13.40;99.90;;;;;;5104961;27;19949;-53
2022/09/16 06:39:52;;;;;;;;;;;13.50;99.90;;;;;;5084319;28;19926;-56
2022/09/16 06:42:32;;;;;;;;;;;13.40;99.90;;;;;;5105263;27;19938;-53
2022/09/16 06:45:17;;;;;;;;;;;13.40;99.90;;;;;;5125475;27;19922;-53
2022/09/16 06:48:00;;;;;;;;;;;13.40;99.90;;;;;;5125508;27;19912;-53
2022/09/16 06:50:40;;;;;;;;;;;13.60;99.90;;;;;;5102748;27;20324;-55
2022/09/16 06:53:20;;;;;;;;;;;13.80;99.90;;;;;;5100892;27;19926;-54
2022/09/16 06:56:01;;;;;;;;;;;14.00;99.90;;;;;;5123297;27;19912;-53
2022/09/16 06:58:42;;;;;;;;;;;14.30;99.90;;;;;;5124848;27;19942;-53
2022/09/16 07:01:24;;;;;;;;;;;14.80;99.90;;;;;;5104581;27;19926;-54
2022/09/16 07:04:05;;;;;;;;;;;15.20;99.90;;;;;;5104837;27;20332;-54
2022/09/16 07:06:46;;;;;;;;;;;15.50;99.90;;;;;;5125253;27;20208;-54
2022/09/16 07:09:25;;;;;;;;;;;15.70;99.90;;;;;;5153874;27;19945;-54
2022/09/16 07:12:07;;;;;;;;;;;15.80;99.90;;;;;;5071164;28;19913;-54
2022/09/16 07:14:46;;;;;;;;;;;15.80;99.90;;;;;;5104496;27;19930;-54
2022/09/16 07:17:27;;;;;;;;;;;16.10;99.90;;;;;;5153942;27;19916;-53
2022/09/16 07:20:08;;;;;;;;;;;16.30;99.90;;;;;;5116121;27;19926;-54
2022/09/16 07:22:52;;;;;;;;;;;16.30;99.90;;;;;;5104236;27;19969;-54
2022/09/16 07:25:32;;;;;;;;;;;16.00;99.90;;;;;;5105553;27;19916;-53
2022/09/16 07:28:12;;;;;;;;;;;15.90;99.90;;;;;;5105389;27;19946;-56
2022/09/16 07:30:52;;;;;;;;;;;16.00;99.90;;;;;;5123449;27;19916;-55
2022/09/16 07:33:32;;;;;;;;;;;16.10;99.90;;;;;;5125850;27;19916;-54
2022/09/16 07:36:13;;;;;;;;;;;16.20;99.90;;;;;;5105449;27;20343;-54
2022/09/16 07:38:56;;;;;;;;;;;16.50;99.90;;;;;;5105500;27;19926;-53
2022/09/16 07:41:36;;;;;;;;;;;16.70;99.90;;;;;;5155834;27;20439;-53
2022/09/16 07:44:18;;;;;;;;;;;16.50;99.90;;;;;;5126586;27;19919;-53
2022/09/16 07:46:58;;;;;;;;;;;16.40;99.90;;;;;;5105637;27;20423;-53
2022/09/16 07:49:38;;;;;;;;;;;16.20;99.90;;;;;;5104972;27;19912;-54
2022/09/16 07:52:18;;;;;;;;;;;16.30;99.90;;;;;;5090758;27;19926;-54
2022/09/16 07:54:58;;;;;;;;;;;16.30;99.90;;;;;;5126444;27;19925;-53
2022/09/16 07:57:38;;;;;;;;;;;16.20;99.90;;;;;;5105720;27;20024;-53
2022/09/16 08:00:18;;;;;;;;;;;16.20;99.90;;;;;;5112428;27;20369;-54
2022/09/16 08:02:59;;;;;;;;;;;16.30;99.90;;;;;;5105866;27;19926;-53
2022/09/16 08:05:39;;;;;;;;;;;16.60;99.90;;;;;;5105602;27;19945;-54
2022/09/16 08:08:19;;;;;;;;;;;16.90;99.90;;;;;;5105926;27;19930;-54
2022/09/16 08:10:59;;;;;;;;;;;16.80;99.90;;;;;;5105511;27;20373;-53
2022/09/16 08:13:39;;;;;;;;;;;16.60;99.90;;;;;;5105505;27;19926;-53
2022/09/16 08:16:19;;;;;;;;;;;16.60;99.90;;;;;;5125302;27;19938;-54
2022/09/16 08:19:00;;;;;;;;;;;16.60;99.90;;;;;;5105308;27;20379;-53
2022/09/16 08:21:39;;;;;;;;;;;16.70;99.90;;;;;;5096109;27;19927;-54
2022/09/16 08:24:19;;;;;;;;;;;16.60;99.90;;;;;;5106015;27;19912;-54
2022/09/16 08:26:59;;;;;;;;;;;16.80;99.90;;;;;;5105582;27;19953;-56
2022/09/16 08:29:39;;;;;;;;;;;16.70;99.90;;;;;;5082487;28;19912;-53
2022/09/16 08:32:19;;;;;;;;;;;16.40;99.90;;;;;;5145144;22;20253;-56
2022/09/16 08:34:59;;;;;;;;;;;16.00;99.90;;;;;;5102230;27;20350;-56
2022/09/16 08:37:38;;;;;;;;;;;15.80;99.90;;;;;;5156071;27;19932;-56
2022/09/16 08:40:21;;;;;;;;;;;16.40;99.90;;;;;;5082441;28;19917;-56
2022/09/16 08:43:05;;;;;;;;;;;16.90;99.90;;;;;;5087200;27;19931;-56
2022/09/16 08:45:49;;;;;;;;;;;17.10;99.90;;;;;;5123648;27;20323;-56
2022/09/16 08:48:34;;;;;;;;;;;17.10;99.90;;;;;;5102672;27;19949;-57
2022/09/16 08:51:17;;;;;;;;;;;17.10;99.90;;;;;;5104328;27;20165;-56
2022/09/16 08:53:58;;;;;;;;;;;17.00;99.90;;;;;;5119868;27;19965;-56
2022/09/16 08:56:48;;;;;;;;;;;17.20;99.90;;;;;;5078796;28;19921;-56
2022/09/16 08:59:30;;;;;;;;;;;17.20;99.90;;;;;;5118988;27;19916;-56
2022/09/16 09:02:39;;;;;;;;;;;17.30;99.90;;;;;;5079466;28;19916;-56
2022/09/16 09:05:24;;;;;;;;;;;17.10;99.90;;;;;;5103778;27;20245;-56
2022/09/16 09:08:22;;;;;;;;;;;17.30;99.90;;;;;;5101228;27;20470;-57
2022/09/16 09:11:05;;;;;;;;;;;17.70;99.90;;;;;;5080184;28;19917;-56
2022/09/16 09:13:54;;;;;;;;;;;18.40;99.90;;;;;;5088836;27;19924;-56
2022/09/16 09:16:38;;;;;;;;;;;18.60;99.90;;;;;;5112606;27;19918;-56
2022/09/16 09:19:31;;;;;;;;;;;18.60;99.90;;;;;;5079266;28;19916;-56
2022/09/16 09:22:17;;;;;;;;;;;18.40;99.90;;;;;;5101689;27;19912;-56
2022/09/16 09:25:04;;;;;;;;;;;18.30;99.90;;;;;;5093437;27;20323;-56
2022/09/16 09:27:47;;;;;;;;;;;18.30;99.90;;;;;;5103892;27;19957;-56
2022/09/16 09:30:27;;;;;;;;;;;18.50;99.90;;;;;;5121921;27;19916;-56
2022/09/16 09:33:15;;;;;;;;;;;18.60;99.90;;;;;;5086435;27;20449;-56
2022/09/16 09:36:04;;;;;;;;;;;18.80;99.90;;;;;;5121699;27;19916;-56
2022/09/16 09:38:50;;;;;;;;;;;18.90;99.90;;;;;;5103180;27;19912;-56
2022/09/16 09:41:34;;;;;;;;;;;19.10;99.90;;;;;;5098482;27;19974;-56
2022/09/16 09:44:25;;;;;;;;;;;19.30;98.90;;;;;;5121927;27;19922;-56
2022/09/16 09:47:09;;;;;;;;;;;19.60;94.30;;;;;;5102908;27;20343;-56
2022/09/16 09:49:54;;;;;;;;;;;19.90;91.20;;;;;;5102456;27;19930;-56
2022/09/16 09:52:38;;;;;;;;;;;19.70;77.20;;;;;;5123927;27;19918;-56
2022/09/16 09:55:19;;;;;;;;;;;19.60;84.30;;;;;;5121157;27;19920;-56
2022/09/16 09:58:04;;;;;;;;;;;19.80;87.00;;;;;;5101984;27;19934;-56
2022/09/16 10:00:44;;;;;;;;;;;19.90;82.40;;;;;;5102744;27;20205;-56
2022/09/16 10:03:24;;;;;;;;;;;19.90;82.10;;;;;;5118647;27;19949;-56
2022/09/16 10:06:03;;;;;;;;;;;19.90;84.70;;;;;;5123090;27;20302;-56
2022/09/16 10:08:45;;;;;;;;;;;20.00;85.50;;;;;;5102914;27;20331;-56
2022/09/16 10:11:27;;;;;;;;;;;20.30;86.20;;;;;;5122636;27;20266;-56
2022/09/16 10:14:21;;;;;;;;;;;20.50;72.40;;;;;;5100823;27;19930;-56
2022/09/16 10:17:03;;;;;;;;;;;20.40;73.50;;;;;;5101723;27;20403;-56
2022/09/16 10:19:51;;;;;;;;;;;20.30;65.60;;;;;;5119332;27;19916;-56
2022/09/16 10:22:32;;;;;;;;;;;19.90;71.80;;;;;;5098495;27;19916;-55
2022/09/16 10:25:23;;;;;;;;;;;19.80;67.70;;;;;;5100522;27;20018;-56
2022/09/16 10:28:05;;;;;;;;;;;19.80;66.60;;;;;;5091884;27;20648;-56
2022/09/16 10:30:47;;;;;;;;;;;19.90;70.60;;;;;;5096250;27;19966;-56
2022/09/16 10:33:30;;;;;;;;;;;19.90;69.10;;;;;;5086934;27;19950;-57
2022/09/16 10:36:11;;;;;;;;;;;20.00;64.60;;;;;;5082580;27;19930;-56
2022/09/16 10:38:53;;;;;;;;;;;20.30;62.40;;;;;;5150342;27;19960;-56
2022/09/16 10:41:34;;;;;;;;;;;20.40;62.50;;;;;;5101326;27;19934;-56
2022/09/16 10:44:17;;;;;;;;;;;20.20;65.40;;;;;;5099731;27;19928;-56
2022/09/16 10:46:58;;;;;;;;;;;20.00;68.70;;;;;;5108502;27;19922;-56
2022/09/16 10:49:39;;;;;;;;;;;19.80;62.90;;;;;;5123550;27;19918;-56
2022/09/16 10:52:21;;;;;;;;;;;19.50;62.50;;;;;;5072596;28;20333;-56
2022/09/16 10:55:17;;;;;;;;;;;19.20;69.90;;;;;;5106007;27;19916;-56
2022/09/16 10:58:07;;;;;;;;;;;19.10;71.20;;;;;;5103194;27;19926;-56
2022/09/16 11:00:50;;;;;;;;;;;18.90;72.90;;;;;;5103880;27;19927;-56
2022/09/16 11:03:38;;;;;;;;;;;18.60;80.10;;;;;;5082747;27;19916;-56
2022/09/16 11:06:28;;;;;;;;;;;18.60;92.80;;;;;;5077631;28;19917;-56
2022/09/16 11:09:13;;;;;;;;;;;19.00;98.40;;;;;;5099108;27;19920;-56
2022/09/16 11:11:58;;;;;;;;;;;19.30;91.90;;;;;;5095279;27;20275;-55
2022/09/16 11:14:45;;;;;;;;;;;19.20;84.40;;;;;;5077705;27;19934;-56
2022/09/16 11:17:35;;;;;;;;;;;18.80;82.70;;;;;;5079648;27;19934;-56
2022/09/16 11:20:31;;;;;;;;;;;17.90;94.90;;;;;;5119838;27;19920;-56
2022/09/16 11:23:20;;;;;;;;;;;17.10;99.90;;;;;;5087656;27;20549;-56
2022/09/16 11:26:05;;;;;;;;;;;16.60;99.90;;;;;;5122398;27;19916;-56
2022/09/16 11:28:58;;;;;;;;;;;16.20;99.90;;;;;;5119435;27;19919;-56
2022/09/16 11:31:46;;;;;;;;;;;16.00;99.90;;;;;;5096038;27;20320;-56
2022/09/16 11:34:35;;;;;;;;;;;16.00;99.90;;;;;;5098304;27;20191;-56
2022/09/16 11:37:19;;;;;;;;;;;16.50;99.90;;;;;;5087776;27;20241;-56
2022/09/16 11:40:06;;;;;;;;;;;17.10;99.90;;;;;;5088803;27;19920;-56
2022/09/16 11:42:50;;;;;;;;;;;17.50;99.90;;;;;;5089665;27;19930;-56
2022/09/16 11:45:44;;;;;;;;;;;17.80;99.90;;;;;;5079660;28;19921;-56
2022/09/16 11:48:36;;;;;;;;;;;18.10;99.90;;;;;;5122492;27;19920;-56
2022/09/16 11:51:25;;;;;;;;;;;18.50;99.90;;;;;;5086551;27;19934;-57
2022/09/16 11:54:12;;;;;;;;;;;18.70;99.90;;;;;;5094135;27;19930;-56
2022/09/16 11:56:54;;;;;;;;;;;18.70;99.90;;;;;;5090187;27;19916;-56
2022/09/16 11:59:37;;;;;;;;;;;18.90;99.90;;;;;;5095968;27;19924;-56
2022/09/16 12:02:21;;;;;;;;;;;19.10;99.90;;;;;;5085666;27;19962;-56
2022/09/16 12:05:03;;;;;;;;;;;19.00;95.70;;;;;;5100828;27;20431;-56
2022/09/16 12:07:45;;;;;;;;;;;19.10;94.40;;;;;;5080491;28;19913;-56
2022/09/16 12:10:28;;;;;;;;;;;19.00;96.20;;;;;;5079155;28;19916;-57
2022/09/16 12:13:09;;;;;;;;;;;19.20;95.80;;;;;;5069766;27;19931;-56
2022/09/16 12:15:50;;;;;;;;;;;19.30;99.90;;;;;;5122111;27;19949;-56
2022/09/16 12:18:32;;;;;;;;;;;19.10;98.60;;;;;;5102709;27;19926;-56
2022/09/16 12:21:16;;;;;;;;;;;18.80;98.30;;;;;;5122888;27;20266;-56
2022/09/16 12:23:59;;;;;;;;;;;18.30;98.20;;;;;;5121649;27;19916;-56
2022/09/16 12:26:41;;;;;;;;;;;17.60;99.90;;;;;;5098509;27;20388;-56
2022/09/16 12:29:27;;;;;;;;;;;17.30;99.90;;;;;;5099805;27;20373;-56
2022/09/16 12:32:09;;;;;;;;;;;17.60;99.90;;;;;;5075532;28;19917;-56
2022/09/16 12:34:54;;;;;;;;;;;18.10;99.90;;;;;;5105229;27;20308;-56
2022/09/16 12:37:36;;;;;;;;;;;18.20;99.90;;;;;;5100323;27;19935;-56
2022/09/16 12:40:19;;;;;;;;;;;18.10;99.90;;;;;;5099714;27;20273;-56
2022/09/16 12:43:10;;;;;;;;;;;17.90;99.90;;;;;;5109507;27;19950;-56
2022/09/16 12:46:03;;;;;;;;;;;17.90;99.90;;;;;;5079538;28;19920;-56
2022/09/16 12:48:54;;;;;;;;;;;17.70;99.90;;;;;;5089547;27;20423;-56
2022/09/16 12:51:55;;;;;;;;;;;17.40;99.90;;;;;;5118514;27;19915;-56
2022/09/16 12:54:44;;;;;;;;;;;17.40;99.90;;;;;;5100738;27;19930;-56
2022/09/16 12:57:33;;;;;;;;;;;17.30;99.90;;;;;;5102735;27;19912;-56
2022/09/16 13:00:30;;;;;;;;;;;17.10;99.90;;;;;;5096020;27;19932;-56
2022/09/16 13:03:14;;;;;;;;;;;17.00;99.90;;;;;;5093207;27;19958;-56
2022/09/16 13:05:55;;;;;;;;;;;17.10;99.90;;;;;;5115662;27;19954;-56
2022/09/16 13:08:36;;;;;;;;;;;17.40;99.90;;;;;;5151139;27;19911;-56
2022/09/16 13:11:20;;;;;;;;;;;17.50;99.90;;;;;;5123719;27;20527;-56
2022/09/16 13:14:00;;;;;;;;;;;17.30;99.90;;;;;;5141484;27;19965;-56
2022/09/16 13:16:39;;;;;;;;;;;17.00;99.90;;;;;;5101223;27;19912;-56
2022/09/16 13:19:33;;;;;;;;;;;17.00;99.90;;;;;;5076614;28;19924;-56
2022/09/16 13:22:17;;;;;;;;;;;17.10;99.90;;;;;;5097242;27;20389;-56
2022/09/16 13:24:58;;;;;;;;;;;17.00;99.90;;;;;;5077120;28;19916;-57
2022/09/16 13:27:39;;;;;;;;;;;17.00;99.90;;;;;;5089353;27;19934;-56
2022/09/16 13:30:30;;;;;;;;;;;16.80;99.90;;;;;;5139466;27;20297;-56
2022/09/16 13:33:24;;;;;;;;;;;16.60;99.90;;;;;;5089159;27;19962;-56
2022/09/16 13:36:16;;;;;;;;;;;16.40;99.90;;;;;;5083581;28;19912;-56
2022/09/16 13:38:56;;;;;;;;;;;16.20;99.90;;;;;;5103061;27;19926;-56
2022/09/16 13:41:38;;;;;;;;;;;16.10;99.90;;;;;;5103050;27;19912;-56
2022/09/16 13:44:30;;;;;;;;;;;16.20;99.90;;;;;;5104035;27;19926;-57
2022/09/16 13:47:29;;;;;;;;;;;16.40;99.90;;;;;;5103579;27;19916;-53
2022/09/16 13:50:13;;;;;;;;;;;16.70;99.90;;;;;;5099751;27;19916;-56
2022/09/16 13:52:53;;;;;;;;;;;17.00;99.90;;;;;;5074943;27;19931;-56
2022/09/16 13:55:47;;;;;;;;;;;17.30;99.90;;;;;;5087494;27;19966;-56
2022/09/16 13:58:29;;;;;;;;;;;17.20;99.90;;;;;;5098652;27;19961;-56
2022/09/16 14:01:12;;;;;;;;;;;16.90;99.90;;;;;;5090556;27;19953;-56
2022/09/16 14:03:57;;;;;;;;;;;16.60;99.90;;;;;;5081855;27;19917;-56
2022/09/16 14:06:45;;;;;;;;;;;16.70;99.90;;;;;;5123157;27;19916;-56
2022/09/16 14:09:31;;;;;;;;;;;16.60;99.90;;;;;;5080539;28;20331;-56
2022/09/16 14:12:15;;;;;;;;;;;16.70;99.90;;;;;;5097647;27;19953;-56
2022/09/16 14:14:58;;;;;;;;;;;16.70;99.90;;;;;;5082921;27;20349;-56
2022/09/16 14:17:51;;;;;;;;;;;16.90;99.90;;;;;;5103173;27;20466;-56
2022/09/16 14:20:33;;;;;;;;;;;16.80;99.90;;;;;;5098907;27;20431;-56
2022/09/16 14:23:16;;;;;;;;;;;16.50;99.90;;;;;;5107295;27;19916;-56
2022/09/16 14:25:56;;;;;;;;;;;16.40;99.90;;;;;;5123866;27;19939;-56
2022/09/16 14:28:36;;;;;;;;;;;16.30;99.90;;;;;;5103512;27;19963;-56
2022/09/16 14:31:17;;;;;;;;;;;16.10;99.90;;;;;;5084413;27;20437;-56
2022/09/16 14:34:00;;;;;;;;;;;16.10;99.90;;;;;;5084612;28;19930;-57
2022/09/16 14:36:42;;;;;;;;;;;16.20;99.90;;;;;;5078892;28;19917;-56
2022/09/16 14:39:23;;;;;;;;;;;16.50;99.90;;;;;;5066279;28;19913;-56
2022/09/16 14:42:05;;;;;;;;;;;17.00;99.90;;;;;;5116181;27;19920;-57
2022/09/16 14:44:47;;;;;;;;;;;17.20;99.90;;;;;;5103999;27;20146;-56
2022/09/16 14:47:30;;;;;;;;;;;17.10;99.90;;;;;;5083147;28;19916;-56
2022/09/16 14:50:13;;;;;;;;;;;17.20;99.90;;;;;;5124132;27;19912;-56
2022/09/16 14:52:55;;;;;;;;;;;17.40;99.90;;;;;;5093047;27;20424;-56
2022/09/16 14:55:38;;;;;;;;;;;17.50;99.90;;;;;;5125560;27;19912;-56
2022/09/16 14:58:20;;;;;;;;;;;17.90;99.90;;;;;;5124010;27;20297;-56
2022/09/16 15:01:02;;;;;;;;;;;18.10;99.30;;;;;;5103920;27;19973;-56
2022/09/16 15:03:44;;;;;;;;;;;18.20;97.00;;;;;;5084045;28;20378;-56
2022/09/16 15:06:25;;;;;;;;;;;18.50;95.60;;;;;;5104815;27;19916;-56
2022/09/16 15:09:08;;;;;;;;;;;18.50;91.60;;;;;;5110530;27;20344;-56
2022/09/16 15:11:50;;;;;;;;;;;18.20;92.40;;;;;;5102018;27;19916;-56
2022/09/16 15:14:29;;;;;;;;;;;17.60;99.30;;;;;;5084408;28;19913;-56
2022/09/16 15:17:09;;;;;;;;;;;17.00;99.90;;;;;;5104687;27;19912;-57
2022/09/16 15:19:51;;;;;;;;;;;16.60;99.90;;;;;;5083446;28;20366;-55
2022/09/16 15:22:32;;;;;;;;;;;16.30;99.90;;;;;;5068771;28;20382;-56
2022/09/16 15:25:19;;;;;;;;;;;16.10;99.90;;;;;;5083786;28;19925;-56
2022/09/16 15:28:06;;;;;;;;;;;16.10;99.90;;;;;;5096248;27;19926;-56
2022/09/16 15:30:48;;;;;;;;;;;16.20;99.90;;;;;;5101939;27;19920;-56
2022/09/16 15:33:34;;;;;;;;;;;16.10;99.90;;;;;;5083212;27;19973;-56
2022/09/16 15:36:32;;;;;;;;;;;16.10;99.90;;;;;;5102211;27;20458;-57
2022/09/16 15:39:23;;;;;;;;;;;16.10;99.90;;;;;;5090821;27;19970;-57
2022/09/16 15:42:17;;;;;;;;;;;16.00;99.90;;;;;;5101663;27;19957;-57
2022/09/16 15:44:58;;;;;;;;;;;15.80;99.90;;;;;;5124182;27;19912;-56
2022/09/16 15:47:52;;;;;;;;;;;15.50;99.90;;;;;;5102658;27;19930;-56